createdAt,value
2019-02-19T00:01:29.816Z,15.10
2019-02-19T00:03:58.466Z,13.60
2019-02-19T00:06:27.076Z,13.27
2019-02-19T00:08:55.764Z,15.13
2019-02-19T00:11:24.548Z,15.00
2019-02-19T00:13:53.200Z,13.67
2019-02-19T00:16:21.909Z,13.83
2019-02-19T00:18:50.524Z,15.37
2019-02-19T00:21:19.587Z,14.27
2019-02-19T00:23:48.213Z,15.27
2019-02-19T00:26:17.566Z,12.07
2019-02-19T00:28:46.185Z,14.63
2019-02-19T00:31:14.800Z,12.30
2019-02-19T00:33:43.677Z,13.00
2019-02-19T00:36:12.314Z,12.80
2019-02-19T00:38:41.076Z,12.93
2019-02-19T00:41:09.662Z,14.37
2019-02-19T00:43:38.580Z,15.10
2019-02-19T00:46:07.200Z,14.73
2019-02-19T00:48:36.058Z,15.60
2019-02-19T00:51:04.694Z,13.47
2019-02-19T00:53:33.580Z,14.37
2019-02-19T00:56:02.227Z,12.47
2019-02-19T00:58:30.960Z,13.67
2019-02-19T01:00:59.608Z,14.07
2019-02-19T01:03:28.381Z,12.93
2019-02-19T01:05:57.020Z,12.93
2019-02-19T01:08:25.857Z,12.20
2019-02-19T01:10:54.448Z,12.77
2019-02-19T01:13:23.115Z,13.00
2019-02-19T01:15:52.278Z,12.13
2019-02-19T01:18:20.906Z,14.23
2019-02-19T01:20:49.554Z,14.53
2019-02-19T01:23:18.320Z,14.03
2019-02-19T01:25:46.928Z,12.33
2019-02-19T01:28:15.732Z,14.00
2019-02-19T01:30:44.337Z,15.27
2019-02-19T01:33:12.970Z,12.73
2019-02-19T01:35:41.610Z,12.97
2019-02-19T01:38:10.218Z,11.77
2019-02-19T01:40:38.930Z,13.97
2019-02-19T01:43:07.582Z,12.03
2019-02-19T01:45:36.338Z,13.07
2019-02-19T01:48:04.953Z,12.90
2019-02-19T01:50:33.552Z,15.07
2019-02-19T01:53:02.201Z,15.60
2019-02-19T01:55:30.846Z,13.97
2019-02-19T01:57:59.564Z,13.83
2019-02-19T02:00:28.167Z,13.80
2019-02-19T02:02:56.857Z,15.17
2019-02-19T02:05:25.454Z,13.30
2019-02-19T02:07:54.062Z,12.50
2019-02-19T02:10:22.736Z,13.80
2019-02-19T02:12:51.332Z,12.13
2019-02-19T02:15:19.933Z,13.20
2019-02-19T02:17:48.608Z,12.80
2019-02-19T02:20:17.220Z,14.00
2019-02-19T02:22:45.934Z,13.60
2019-02-19T02:25:14.537Z,12.67
2019-02-19T02:27:43.278Z,14.00
2019-02-19T02:30:11.921Z,15.60
2019-02-19T02:32:40.596Z,12.53
2019-02-19T02:35:11.288Z,11.40
2019-02-19T02:37:39.528Z,11.97
2019-02-19T02:40:08.216Z,11.57
2019-02-19T02:42:36.854Z,13.30
2019-02-19T02:45:05.555Z,13.13
2019-02-19T02:47:34.205Z,13.60
2019-02-19T02:50:02.823Z,11.43
2019-02-19T02:52:31.427Z,12.83
2019-02-19T02:55:00.015Z,10.90
2019-02-19T02:57:28.627Z,13.17
2019-02-19T02:59:57.353Z,10.30
2019-02-19T03:02:25.957Z,11.23
2019-02-19T03:04:54.549Z,11.10
2019-02-19T03:07:51.061Z,12.03
2019-02-19T03:10:19.659Z,12.67
2019-02-19T03:12:48.256Z,10.90
2019-02-19T03:15:17.184Z,10.53
2019-02-19T03:17:45.785Z,13.37
2019-02-19T03:20:14.538Z,11.13
2019-02-19T03:22:43.284Z,10.27
2019-02-19T03:25:11.967Z,11.17
2019-02-19T03:27:40.574Z,11.90
2019-02-19T03:30:10.111Z,11.17
2019-02-19T03:32:38.745Z,11.47
2019-02-19T03:35:07.445Z,12.00
2019-02-19T03:37:36.217Z,11.53
2019-02-19T03:40:05.078Z,10.57
2019-02-19T03:42:33.681Z,10.07
2019-02-19T03:45:02.298Z,11.57
2019-02-19T03:47:31.146Z,10.97
2019-02-19T03:49:59.735Z,9.70
2019-02-19T03:52:28.357Z,10.63
2019-02-19T03:54:56.973Z,9.77
2019-02-19T03:57:25.579Z,10.43
2019-02-19T03:59:54.330Z,12.37
2019-02-19T04:02:22.909Z,11.47
2019-02-19T04:04:51.514Z,10.60
2019-02-19T04:07:20.142Z,11.63
2019-02-19T04:09:48.743Z,12.83
2019-02-19T04:12:17.489Z,11.43
2019-02-19T04:14:46.122Z,10.10
2019-02-19T04:17:15.002Z,12.73
2019-02-19T04:19:43.677Z,12.37
2019-02-19T04:22:12.413Z,10.47
2019-02-19T04:24:41.010Z,11.33
2019-02-19T04:27:09.611Z,10.33
2019-02-19T04:29:38.244Z,10.43
2019-02-19T04:32:06.850Z,11.80
2019-02-19T04:34:35.552Z,10.13
2019-02-19T04:37:04.217Z,8.77
2019-02-19T04:39:32.812Z,11.00
2019-02-19T04:42:01.413Z,10.00
2019-02-19T04:44:30.036Z,9.63
2019-02-19T04:46:58.728Z,9.20
2019-02-19T04:49:27.341Z,8.87
2019-02-19T04:51:55.957Z,8.70
2019-02-19T04:54:24.553Z,9.70
2019-02-19T04:56:53.177Z,9.67
2019-02-19T04:59:21.944Z,8.60
2019-02-19T05:01:50.556Z,9.10
2019-02-19T05:04:19.158Z,10.60
2019-02-19T05:06:47.771Z,8.63
2019-02-19T05:09:16.362Z,10.07
2019-02-19T05:11:45.025Z,9.17
2019-02-19T05:14:13.670Z,7.83
2019-02-19T05:16:42.338Z,8.07
2019-02-19T05:19:10.956Z,8.90
2019-02-19T05:21:39.564Z,8.70
2019-02-19T05:24:08.256Z,7.93
2019-02-19T05:26:36.868Z,10.63
2019-02-19T05:29:05.468Z,8.00
2019-02-19T05:31:34.068Z,10.30
2019-02-19T05:34:02.725Z,7.60
2019-02-19T05:36:31.462Z,9.53
2019-02-19T05:39:00.053Z,8.47
2019-02-19T05:41:28.700Z,8.50
2019-02-19T05:43:57.304Z,9.67
2019-02-19T05:46:25.890Z,8.13
2019-02-19T05:48:54.633Z,9.90
2019-02-19T05:51:23.223Z,6.87
2019-02-19T05:53:51.829Z,7.73
2019-02-19T05:56:20.446Z,8.60
2019-02-19T05:58:49.022Z,8.63
2019-02-19T06:01:17.618Z,7.87
2019-02-19T06:03:46.256Z,9.93
2019-02-19T06:06:14.876Z,9.80
2019-02-19T06:08:43.522Z,10.60
2019-02-19T06:11:12.139Z,11.07
2019-02-19T06:13:40.732Z,10.83
2019-02-19T06:16:09.332Z,8.97
2019-02-19T06:18:37.960Z,8.73
2019-02-19T06:21:06.740Z,10.97
2019-02-19T06:23:35.349Z,10.57
2019-02-19T06:26:04.067Z,10.13
2019-02-19T06:28:32.721Z,11.97
2019-02-19T06:31:01.298Z,12.27
2019-02-19T06:33:29.927Z,13.20
2019-02-19T06:35:58.527Z,11.47
2019-02-19T06:38:27.129Z,11.10
2019-02-19T06:40:55.774Z,10.17
2019-02-19T06:43:24.366Z,9.67
2019-02-19T06:45:53.093Z,11.27
2019-02-19T06:48:21.700Z,10.17
2019-02-19T06:50:50.310Z,11.73
2019-02-19T06:53:18.918Z,9.03
2019-02-19T06:55:47.560Z,12.17
2019-02-19T06:58:16.240Z,10.00
2019-02-19T07:00:44.848Z,9.43
2019-02-19T07:03:38.260Z,8.30
2019-02-19T07:06:06.854Z,8.60
2019-02-19T07:08:35.460Z,9.50
2019-02-19T07:11:04.076Z,9.53
2019-02-19T07:13:32.681Z,10.60
2019-02-19T07:16:01.332Z,9.20
2019-02-19T07:18:29.945Z,9.27
2019-02-19T07:20:58.805Z,9.73
2019-02-19T07:23:27.388Z,9.93
2019-02-19T07:25:56.252Z,10.70
2019-02-19T07:28:24.968Z,8.50
2019-02-19T07:30:53.643Z,9.87
2019-02-19T07:33:22.272Z,10.53
2019-02-19T07:35:50.889Z,9.40
2019-02-19T07:38:19.494Z,10.73
2019-02-19T07:40:48.123Z,11.30
2019-02-19T07:43:16.888Z,8.40
2019-02-19T07:45:45.501Z,12.60
2019-02-19T07:48:14.178Z,8.97
2019-02-19T07:50:42.766Z,10.97
2019-02-19T07:53:11.360Z,9.17
2019-02-19T07:55:40.060Z,12.80
2019-02-19T07:58:08.653Z,11.23
2019-02-19T08:00:37.261Z,10.40
2019-02-19T08:03:05.926Z,9.07
2019-02-19T08:05:34.550Z,9.60
2019-02-19T08:08:03.198Z,9.30
2019-02-19T08:10:31.801Z,8.90
2019-02-19T08:13:00.433Z,9.03
2019-02-19T08:15:29.028Z,10.83
2019-02-19T08:17:57.623Z,8.67
2019-02-19T08:20:27.973Z,9.13
2019-02-19T08:22:56.595Z,9.17
2019-02-19T08:25:25.194Z,8.77
2019-02-19T08:27:53.872Z,10.90
2019-02-19T08:30:22.513Z,9.43
2019-02-19T08:32:51.108Z,7.90
2019-02-19T08:35:19.798Z,8.13
2019-02-19T08:37:48.402Z,8.10
2019-02-19T08:40:16.992Z,8.03
2019-02-19T08:42:45.595Z,7.77
2019-02-19T08:45:14.198Z,7.07
2019-02-19T08:47:43.123Z,8.93
2019-02-19T08:50:11.825Z,7.50
2019-02-19T08:52:40.491Z,10.10
2019-02-19T08:55:09.077Z,8.43
2019-02-19T08:57:37.959Z,10.60
2019-02-19T09:00:06.872Z,5.90
2019-02-19T09:02:35.515Z,7.10
2019-02-19T09:05:04.241Z,8.40
2019-02-19T09:07:32.883Z,9.37
2019-02-19T09:10:01.529Z,8.20
2019-02-19T09:12:31.163Z,7.50
2019-02-19T09:14:59.753Z,6.70
2019-02-19T09:17:28.409Z,5.97
2019-02-19T09:19:57.077Z,9.27
2019-02-19T09:22:25.690Z,7.00
2019-02-19T09:24:54.469Z,7.27
2019-02-19T09:27:23.069Z,6.87
2019-02-19T09:29:51.945Z,5.60
2019-02-19T09:32:20.589Z,6.10
2019-02-19T09:34:49.480Z,6.07
2019-02-19T09:37:18.109Z,6.20
2019-02-19T09:39:46.866Z,7.13
2019-02-19T09:42:15.455Z,7.27
2019-02-19T09:44:44.088Z,5.80
2019-02-19T09:47:12.693Z,7.57
2019-02-19T09:49:41.266Z,5.80
2019-02-19T09:52:10.088Z,7.40
2019-02-19T09:54:38.693Z,7.47
2019-02-19T09:57:07.527Z,8.00
2019-02-19T09:59:36.147Z,7.57
2019-02-19T10:02:05.007Z,7.90
2019-02-19T10:04:33.589Z,6.83
2019-02-19T10:07:02.221Z,7.70
2019-02-19T10:09:30.871Z,8.57
2019-02-19T10:11:59.636Z,5.93
2019-02-19T10:14:28.280Z,7.77
2019-02-19T10:16:56.859Z,6.20
2019-02-19T10:19:26.091Z,9.53
2019-02-19T10:21:54.843Z,8.30
2019-02-19T10:24:23.447Z,6.67
2019-02-19T10:26:52.068Z,6.17
2019-02-19T10:29:20.675Z,6.67
2019-02-19T10:31:49.271Z,5.70
2019-02-19T10:34:17.948Z,6.83
2019-02-19T10:36:46.549Z,6.17
2019-02-19T10:39:15.142Z,9.23
2019-02-19T10:41:43.789Z,8.00
2019-02-19T10:44:12.393Z,8.53
2019-02-19T10:46:41.243Z,9.80
2019-02-19T10:49:09.845Z,6.77
2019-02-19T10:51:38.751Z,6.17
2019-02-19T10:54:07.339Z,9.47
2019-02-19T10:56:36.284Z,7.90
2019-02-19T10:59:04.923Z,7.20
2019-02-19T11:01:33.954Z,8.47
2019-02-19T11:04:02.595Z,6.43
2019-02-19T11:06:31.217Z,8.47
2019-02-19T11:08:59.821Z,6.40
2019-02-19T11:11:28.529Z,6.87
2019-02-19T11:13:57.181Z,7.70
2019-02-19T11:16:26.028Z,9.27
2019-02-19T11:18:54.627Z,8.43
2019-02-19T11:21:23.483Z,8.83
2019-02-19T11:23:52.087Z,8.27
2019-02-19T11:26:20.681Z,9.53
2019-02-19T11:28:49.299Z,8.20
2019-02-19T11:31:17.899Z,9.87
2019-02-19T11:33:46.611Z,8.20
2019-02-19T11:36:15.234Z,10.53
2019-02-19T11:38:44.145Z,8.30
2019-02-19T11:41:12.731Z,8.27
2019-02-19T11:43:41.511Z,5.83
2019-02-19T11:46:10.102Z,7.43
2019-02-19T11:48:38.754Z,7.30
2019-02-19T11:51:07.381Z,7.30
2019-02-19T11:53:35.961Z,8.13
2019-02-19T11:56:04.571Z,6.30
2019-02-19T11:58:33.180Z,7.67
2019-02-19T12:01:01.799Z,6.13
2019-02-19T12:03:30.442Z,6.30
2019-02-19T12:05:59.057Z,7.57
2019-02-19T12:08:27.645Z,9.10
2019-02-19T12:10:56.261Z,9.63
2019-02-19T12:13:24.885Z,8.07
2019-02-19T12:15:53.642Z,7.90
2019-02-19T12:18:22.233Z,10.10
2019-02-19T12:20:50.852Z,7.50
2019-02-19T12:23:19.515Z,6.80
2019-02-19T12:25:48.103Z,8.53
2019-02-19T12:28:16.829Z,6.63
2019-02-19T12:30:45.412Z,6.70
2019-02-19T12:33:14.019Z,5.30
2019-02-19T12:35:42.668Z,7.33
2019-02-19T12:38:11.259Z,7.53
2019-02-19T12:40:40.007Z,6.20
2019-02-19T12:43:08.632Z,6.10
2019-02-19T12:45:37.228Z,4.87
2019-02-19T12:48:05.812Z,4.90
2019-02-19T12:50:34.467Z,6.93
2019-02-19T12:53:03.057Z,6.57
2019-02-19T12:55:31.652Z,7.83
2019-02-19T12:58:00.289Z,4.70
2019-02-19T13:00:28.878Z,6.37
2019-02-19T13:02:57.494Z,7.73
2019-02-19T13:05:26.135Z,6.37
2019-02-19T13:07:54.726Z,6.97
2019-02-19T13:10:23.327Z,5.23
2019-02-19T13:12:52.064Z,6.67
2019-02-19T13:15:20.739Z,5.70
2019-02-19T13:17:49.449Z,5.83
2019-02-19T13:20:18.111Z,4.90
2019-02-19T13:22:46.698Z,9.13
2019-02-19T13:25:15.293Z,8.07
2019-02-19T13:27:43.901Z,7.10
2019-02-19T13:30:13.324Z,7.13
2019-02-19T13:32:41.954Z,5.43
2019-02-19T13:35:10.689Z,6.40
2019-02-19T13:37:39.373Z,5.33
2019-02-19T13:40:08.348Z,7.10
2019-02-19T13:42:36.997Z,6.37
2019-02-19T13:45:06.197Z,5.60
2019-02-19T13:47:34.791Z,5.53
2019-02-19T13:50:03.718Z,6.70
2019-02-19T13:52:40.607Z,7.70
2019-02-19T13:55:13.367Z,7.43
2019-02-19T13:57:42.016Z,6.57
2019-02-19T14:00:14.033Z,5.60
2019-02-19T14:02:42.654Z,8.27
2019-02-19T14:05:11.251Z,8.40
2019-02-19T14:07:39.863Z,5.57
2019-02-19T14:10:08.486Z,7.43
2019-02-19T14:12:37.327Z,8.37
2019-02-19T14:15:15.871Z,6.80
2019-02-19T14:17:44.490Z,7.93
2019-02-19T14:20:44.390Z,7.90
2019-02-19T14:23:34.851Z,7.87
2019-02-19T14:26:29.865Z,7.23
2019-02-19T14:29:15.688Z,5.93
2019-02-19T14:32:01.744Z,5.37
2019-02-19T14:34:52.597Z,5.27
2019-02-19T14:37:40.897Z,3.93
2019-02-19T14:40:18.175Z,4.60
2019-02-19T14:43:12.824Z,3.73
2019-02-19T14:45:56.931Z,6.93
2019-02-19T14:48:53.623Z,4.97
2019-02-19T14:51:40.026Z,5.07
2019-02-19T14:54:27.674Z,4.43
2019-02-19T14:57:18.294Z,5.00
2019-02-19T15:00:04.209Z,5.43
2019-02-19T15:02:51.851Z,4.67
2019-02-19T15:05:29.244Z,5.83
2019-02-19T15:08:09.896Z,3.40
2019-02-19T15:11:03.258Z,4.13
2019-02-19T15:13:57.040Z,5.13
2019-02-19T15:16:41.876Z,3.87
2019-02-19T15:19:27.737Z,5.27
2019-02-19T15:22:10.557Z,4.97
2019-02-19T15:25:04.161Z,4.70
2019-02-19T15:27:40.220Z,6.73
2019-02-19T15:30:21.628Z,5.23
2019-02-19T15:33:24.475Z,5.87
2019-02-19T15:36:10.720Z,5.27
2019-02-19T15:38:57.214Z,5.37
2019-02-19T15:41:44.818Z,5.27
2019-02-19T15:44:26.886Z,4.77
2019-02-19T15:47:04.860Z,4.30
2019-02-19T15:49:51.035Z,4.83
2019-02-19T15:52:44.688Z,4.73
2019-02-19T15:55:32.412Z,4.03
2019-02-19T15:58:29.474Z,3.77
2019-02-19T16:01:15.464Z,3.70
2019-02-19T16:03:59.021Z,8.00
2019-02-19T16:06:49.498Z,6.00
2019-02-19T16:09:24.256Z,4.30
2019-02-19T16:12:14.721Z,4.50
2019-02-19T16:15:02.336Z,5.37
2019-02-19T16:17:57.804Z,8.07
2019-02-19T16:20:57.462Z,9.60
2019-02-19T16:23:44.092Z,8.70
2019-02-19T16:26:49.967Z,9.00
2019-02-19T16:29:36.224Z,9.10
2019-02-19T16:32:24.598Z,9.73
2019-02-19T16:35:00.040Z,9.90
2019-02-19T16:37:43.206Z,9.17
2019-02-19T16:40:19.168Z,8.67
2019-02-19T16:43:04.602Z,11.23
2019-02-19T16:45:50.862Z,8.90
2019-02-19T16:48:56.665Z,12.03
2019-02-19T16:51:42.984Z,9.50
2019-02-19T16:54:36.856Z,10.40
2019-02-19T16:57:21.937Z,12.70
2019-02-19T17:00:15.458Z,10.03
2019-02-19T17:02:54.596Z,13.03
2019-02-19T17:05:44.959Z,16.13
2019-02-19T17:08:41.268Z,12.23
2019-02-19T17:11:37.623Z,15.30
2019-02-19T17:14:32.743Z,12.90
2019-02-19T17:17:16.186Z,14.33
2019-02-19T17:20:26.381Z,13.83
2019-02-19T17:23:03.966Z,14.23
2019-02-19T17:25:49.959Z,14.27
2019-02-19T17:28:26.023Z,14.57
2019-02-19T17:31:13.741Z,12.60
2019-02-19T17:33:59.261Z,13.47
2019-02-19T17:36:52.575Z,14.13
2019-02-19T17:39:39.251Z,13.00
2019-02-19T17:42:25.410Z,12.53
2019-02-19T17:45:09.560Z,14.87
2019-02-19T17:48:12.081Z,15.77
2019-02-19T17:50:57.929Z,15.97
2019-02-19T17:53:42.180Z,15.07
2019-02-19T17:56:31.621Z,17.00
2019-02-19T17:59:37.135Z,14.33
2019-02-19T18:02:10.521Z,14.47
2019-02-19T18:04:44.945Z,15.47
2019-02-19T18:07:31.203Z,14.80
2019-02-19T18:10:17.401Z,14.97
2019-02-19T18:12:57.449Z,15.00
2019-02-19T18:15:51.755Z,14.47
2019-02-19T18:18:38.368Z,12.60
2019-02-19T18:21:06.962Z,11.80
2019-02-19T18:23:35.573Z,13.53
2019-02-19T18:26:04.216Z,11.70
2019-02-19T18:28:32.837Z,13.17
2019-02-19T18:31:01.675Z,11.00
2019-02-19T18:33:30.295Z,10.83
2019-02-19T18:35:59.079Z,30.33
2019-02-19T18:38:27.687Z,32.23
2019-02-19T18:40:56.313Z,33.77
2019-02-19T18:43:24.899Z,25.70
2019-02-19T18:45:53.520Z,21.00
2019-02-19T18:48:22.235Z,18.20
2019-02-19T18:50:58.094Z,14.13
2019-02-19T18:53:21.187Z,14.33
2019-02-19T18:55:51.163Z,11.97
2019-02-19T18:58:19.949Z,12.70
2019-02-19T19:00:48.547Z,12.33
2019-02-19T19:03:17.142Z,12.10
2019-02-19T19:05:45.795Z,14.57
2019-02-19T19:08:14.397Z,10.90
2019-02-19T19:10:43.041Z,22.80
2019-02-19T19:13:11.687Z,20.77
2019-02-19T19:15:40.340Z,13.63
2019-02-19T19:18:09.027Z,12.20
2019-02-19T19:20:37.665Z,11.77
2019-02-19T19:23:06.512Z,13.77
2019-02-19T19:25:35.146Z,10.03
2019-02-19T19:28:03.804Z,12.73
2019-02-19T19:30:32.402Z,9.67
2019-02-19T19:33:01.048Z,11.40
2019-02-19T19:35:29.711Z,12.57
2019-02-19T19:37:58.334Z,10.47
2019-02-19T19:40:26.967Z,14.73
2019-02-19T19:42:55.588Z,13.60
2019-02-19T19:45:24.202Z,14.50
2019-02-19T19:47:52.840Z,12.30
2019-02-19T19:50:21.438Z,13.30
2019-02-19T19:52:50.041Z,13.47
2019-02-19T19:55:18.625Z,13.83
2019-02-19T19:57:47.236Z,10.63
2019-02-19T20:00:15.882Z,15.23
2019-02-19T20:02:44.496Z,12.53
2019-02-19T20:05:13.197Z,15.73
2019-02-19T20:07:41.830Z,15.30
2019-02-19T20:10:10.478Z,14.57
2019-02-19T20:12:39.089Z,16.57
2019-02-19T20:15:08.064Z,16.37
2019-02-19T20:17:36.691Z,15.27
2019-02-19T20:20:05.762Z,13.20
2019-02-19T20:22:34.400Z,14.10
2019-02-19T20:25:03.020Z,11.80
2019-02-19T20:27:31.604Z,11.13
2019-02-19T20:30:00.276Z,10.83
2019-02-19T20:32:28.998Z,10.70
2019-02-19T20:34:57.624Z,10.83
2019-02-19T20:37:26.553Z,9.87
2019-02-19T20:39:55.562Z,11.50
2019-02-19T20:42:24.200Z,12.47
2019-02-19T20:44:52.840Z,8.80
2019-02-19T20:47:21.436Z,11.83
2019-02-19T20:49:50.036Z,12.13
2019-02-19T20:52:18.680Z,10.50
2019-02-19T20:54:47.280Z,9.30
2019-02-19T20:57:15.866Z,10.83
2019-02-19T20:59:44.478Z,12.47
2019-02-19T21:02:13.104Z,10.60
2019-02-19T21:04:41.794Z,14.00
2019-02-19T21:07:10.420Z,11.60
2019-02-19T21:09:43.843Z,11.57
2019-02-19T21:12:09.311Z,12.13
2019-02-19T21:14:37.986Z,11.37
2019-02-19T21:17:06.603Z,11.90
2019-02-19T21:19:35.204Z,9.87
2019-02-19T21:22:03.796Z,12.13
2019-02-19T21:24:32.417Z,11.03
2019-02-19T21:27:01.037Z,11.60
2019-02-19T21:29:29.650Z,12.07
2019-02-19T21:31:58.259Z,9.53
2019-02-19T21:34:26.962Z,12.80
2019-02-19T21:36:55.578Z,9.70
2019-02-19T21:39:24.325Z,10.70
2019-02-19T21:41:53.523Z,15.00
2019-02-19T21:44:22.142Z,10.00
2019-02-19T21:46:50.766Z,10.73
2019-02-19T21:49:19.449Z,11.00
2019-02-19T21:51:53.879Z,9.03
2019-02-19T21:54:18.405Z,10.13
2019-02-19T21:56:46.997Z,10.70
2019-02-19T21:59:15.599Z,10.50
2019-02-19T22:01:44.206Z,9.97
2019-02-19T22:04:12.786Z,9.93
2019-02-19T22:06:41.590Z,9.87
2019-02-19T22:09:10.212Z,9.87
2019-02-19T22:11:38.812Z,10.13
2019-02-19T22:14:07.658Z,10.30
2019-02-19T22:16:36.348Z,10.87
2019-02-19T22:19:05.078Z,9.70
2019-02-19T22:21:44.936Z,10.07
2019-02-19T22:24:13.520Z,9.57
2019-02-19T22:26:42.122Z,11.30
2019-02-19T22:29:10.810Z,11.33
2019-02-19T22:31:39.419Z,8.97
2019-02-19T22:34:08.552Z,9.73
2019-02-19T22:36:37.367Z,9.03
2019-02-19T22:39:06.561Z,12.07
2019-02-19T22:41:35.273Z,10.23
2019-02-19T22:44:03.902Z,8.30
2019-02-19T22:46:32.562Z,8.83
2019-02-19T22:49:01.214Z,11.13
2019-02-19T22:51:29.863Z,9.97
2019-02-19T22:54:12.233Z,8.83
2019-02-19T22:56:42.885Z,9.03
2019-02-19T22:59:11.489Z,9.63
2019-02-19T23:01:43.684Z,10.43
2019-02-19T23:04:12.488Z,11.60
2019-02-19T23:06:41.086Z,11.63
2019-02-19T23:09:09.703Z,9.03
2019-02-19T23:11:38.367Z,8.63
2019-02-19T23:14:06.980Z,8.87
2019-02-19T23:16:35.712Z,10.80
2019-02-19T23:19:04.349Z,10.63
2019-02-19T23:21:33.207Z,10.73
2019-02-19T23:24:01.867Z,9.13
2019-02-19T23:26:30.765Z,10.33
2019-02-19T23:28:59.401Z,11.83
2019-02-19T23:31:28.075Z,10.30
2019-02-19T23:33:56.703Z,10.40
2019-02-19T23:36:38.366Z,10.53
2019-02-19T23:39:07.636Z,9.47
2019-02-19T23:41:36.255Z,11.60
2019-02-19T23:44:04.979Z,10.27
2019-02-19T23:46:33.569Z,11.10
2019-02-19T23:49:02.415Z,10.90
2019-02-19T23:51:31.124Z,10.90
2019-02-19T23:53:59.860Z,13.47
2019-02-19T23:56:28.483Z,11.80
2019-02-19T23:58:57.107Z,14.40
